AirNav   Bose Proflight Series 2 Wireless Aviation Headset
 
 910 users online  

2FL8 Tiger Lake Airport
River Ranch, Florida, USA

GOING TO RIVER RANCH?


FAA INFORMATION EFFECTIVE 07 NOVEMBER 2019

Location

FAA Identifier: 2FL8
Lat/Long: 27-53-01.0800N 081-21-47.2500W
27-53.018000N 081-21.787500W
27.8836333,-81.3631250
(estimated)
Elevation: 54 ft. / 16 m (estimated)
Variation: 04W (1995)
From city: 10 miles NW of RIVER RANCH, FL
Time zone: UTC -5 (UTC -4 during Daylight Saving Time)
Zip code: 33853

Airport Operations

Airport use: Private use. Permission required prior to landing
Activation date: 03/1999
Control tower: no
ARTCC: MIAMI CENTER
FSS: SAINT PETERSBURG FLIGHT SERVICE STATION
Attendance: CONTINUOUS
Wind indicator: yes
Segmented circle: no

Airport Communications

WX AWOS-3 at X07 (14 nm W): 124.225 (863-678-1334)
WX AWOS-3 at AVO (20 nm SW): 118.725 (863-453-4223)

Nearby radio navigation aids

VOR radial/distance  VOR name  Freq  Var
LALr099/35.0LAKELAND VORTAC116.0001E
ORLr182/39.6ORLANDO VORTAC112.2000E

Airport Services

Runway Information

Runway 16/34

Dimensions: 3150 x 120 ft. / 960 x 37 m
Surface: turf
RUNWAY 16  RUNWAY 34
Traffic pattern: leftleft

Airport Ownership and Management from official FAA records

Ownership: Privately-owned
Owner: TIGER RANCH CATTLE COMPANY
PO BOX 909
ROSELAND, FL 32957
Phone (772) 473-1007
Manager: DANA L. SHRIVER
PO BOX 909
ROSELAND, FL 32957
Phone (772) 473-1007

Airport Operational Statistics

Aircraft based on the field: 1
Single engine airplanes: 1
    

Additional Remarks

FOR CD CTC MIAMI ARTCC AT 305-716-1731.

Instrument Procedures

There are no published instrument procedures at 2FL8.

Some nearby airports with instrument procedures:

X07 - Lake Wales Municipal Airport (14 nm W)
KAVO - Avon Park Executive Airport (20 nm SW)
KBOW - Bartow Executive Airport (23 nm W)
KGIF - Winter Haven Regional Airport (23 nm NW)
KISM - Kissimmee Gateway Airport (25 nm N)
 
Loc | Ops | Rwys | IFR | FBO | Links
Com | Nav | Svcs | Stats | Notes

Reliance Aviation
AirBoss

 
Area around 2FL8 (Tiger Lake Airport)
 
Road maps at: MapQuest Bing Google
 
Aerial photo
No photo
 
Sectional chart

 
Airport distance calculator
Flying to Tiger Lake Airport? Find the distance to fly.

From to 2FL8

Sunrise and sunset
Times for 19-Nov-2019
 Local
(UTC-5)
 Zulu
(UTC)
Morning civil twilight06:2611:26
Sunrise06:5111:51
Sunset17:3122:31
Evening civil twilight17:5622:56

Current date and time
Zulu (UTC)  19-Nov-2019 12:53:48
Local (UTC-5)  19-Nov-2019 07:53:48
 
METAR
KX07 
14nm W 
190035Z AUTO 00000KT 10SM CLR 17/13 A2987 RMK A01
KBOW 
22nm W 
191230Z 00000KT 10SM SCT050 13/12 A2994
KGIF 
23nm NW 
191153Z AUTO 22003KT 4SM BR FEW029 BKN055 14/13 A2994 RMK AO2 SLP136 T01440133 10150 20128 53018
KISM 
24nm N 
191156Z 00000KT 10SM CLR 13/13 A2994 RMK AO2 SLP139 6//// 7//// T01280128 10133 20111 53021 PNO $
KSEF 
26nm S 
191235Z AUTO 00000KT 4SM BR BKN046 12/11 A2995 RMK AO2 T01170114
TAF
KISM 
24nm N 
191128Z 1912/2012 VRB04KT P6SM FEW030 FM191300 31007KT P6SM FEW035 SCT250 FM191800 28012KT P6SM FEW030 SCT250
NOTAMs
Click for the latest NOTAMs
NOTAMs are issued by the DoD/FAA and will open in a separate window not controlled by AirNav.

 

 
 

Would you like to see your business listed on this page?

 If your business provides an interesting product or service to pilots, flight crews, aircraft, or users of the Tiger Lake Airport, you should consider listing it here.  To start the listing process, click on the button below
 
Add a business
 

Other Pages about Tiger Lake Airport

Update a link
 
Copyright © AirNav, LLC. All rights reserved. Privacy Policy  Contact